Time;durP1;ratioP1;P1;durP2;ratioP2;P2;SDS_P1;SDS_P2;PMS_P1;PMS_P2;Temp;Humidity;BMP_temperature;BMP_pressure;BME280_temperature;BME280_humidity;BME280_pressure;Samples;Min_cycle;Max_cycle;Signal;HPM_P1;HPM_P2
2022/04/11 00:01:01;;;;;;;27.73;4.18;;;34.30;21.40;;;;;;5032523;28;20053;-71
2022/04/11 00:03:29;;;;;;;18.80;3.78;;;34.30;20.80;;;;;;5032044;28;20439;-70
2022/04/11 00:05:56;;;;;;;26.02;4.93;;;34.30;20.50;;;;;;5031651;28;20046;-67
2022/04/11 00:08:23;;;;;;;37.45;4.40;;;34.50;20.60;;;;;;5047558;28;20192;-70
2022/04/11 00:10:49;;;;;;;29.88;4.60;;;34.60;20.60;;;;;;5031223;28;20046;-66
2022/04/11 00:13:16;;;;;;;30.58;4.47;;;34.60;20.80;;;;;;5047467;28;20132;-66
2022/04/11 00:15:42;;;;;;;19.40;3.97;;;34.70;20.90;;;;;;5031467;28;20052;-67
2022/04/11 00:18:09;;;;;;;27.00;4.68;;;34.80;20.50;;;;;;5030969;28;20053;-69
2022/04/11 00:20:36;;;;;;;23.67;3.83;;;34.80;20.40;;;;;;5031642;28;20051;-67
2022/04/11 00:23:06;;;;;;;29.67;4.63;;;34.90;20.10;;;;;;5031297;28;20533;-66
2022/04/11 00:25:34;;;;;;;24.55;4.72;;;34.90;20.30;;;;;;5031775;28;20063;-68
2022/04/11 00:28:00;;;;;;;29.75;4.75;;;34.70;20.80;;;;;;5049568;28;20297;-69
2022/04/11 00:30:27;;;;;;;20.67;4.70;;;34.70;21.00;;;;;;5027396;28;20046;-68
2022/04/11 00:32:53;;;;;;;28.50;4.70;;;34.70;20.50;;;;;;5030174;28;20047;-70
2022/04/11 00:35:20;;;;;;;27.52;4.53;;;34.60;20.50;;;;;;5031357;28;20046;-68
2022/04/11 00:37:46;;;;;;;27.85;3.95;;;34.70;20.40;;;;;;5031224;28;20059;-69
2022/04/11 00:40:13;;;;;;;16.40;3.25;;;34.70;21.10;;;;;;5048839;28;20056;-65
2022/04/11 00:42:40;;;;;;;24.25;4.15;;;34.80;20.60;;;;;;5031039;28;20469;-65
2022/04/11 00:45:07;;;;;;;25.50;4.25;;;34.80;20.30;;;;;;5029285;28;20170;-69
2022/04/11 00:47:34;;;;;;;18.77;3.47;;;34.80;20.10;;;;;;5048421;28;20050;-68
2022/04/11 00:50:10;;;;;;;16.08;3.03;;;34.60;17.50;;;;;;5030428;28;20045;-65
2022/04/11 00:52:55;;;;;;;14.82;2.58;;;34.50;14.70;;;;;;5030289;28;20046;-63
2022/04/11 00:55:23;;;;;;;17.80;3.47;;;34.50;14.70;;;;;;5046399;28;20551;-63
2022/04/11 00:57:50;;;;;;;16.27;3.50;;;34.40;14.00;;;;;;5030461;28;20054;-67
2022/04/11 01:00:17;;;;;;;20.17;3.67;;;34.20;14.20;;;;;;5049163;28;21371;-66
2022/04/11 01:02:43;;;;;;;17.52;3.28;;;34.00;14.70;;;;;;5028106;28;20042;-66
2022/04/11 01:05:11;;;;;;;18.02;3.35;;;34.00;14.80;;;;;;5031155;28;20526;-67
2022/04/11 01:07:38;;;;;;;16.23;2.92;;;34.00;14.80;;;;;;5030293;28;20122;-67
2022/04/11 01:10:06;;;;;;;14.23;3.03;;;33.90;14.70;;;;;;5029464;28;20046;-70
2022/04/11 01:12:33;;;;;;;25.65;3.33;;;33.80;14.40;;;;;;5046681;28;20057;-67
2022/04/11 01:14:59;;;;;;;21.58;2.92;;;33.60;14.40;;;;;;5031076;28;20075;-66
2022/04/11 01:17:36;;;;;;;27.73;4.25;;;33.50;14.70;;;;;;5030332;28;20492;-63
2022/04/11 01:20:09;;;;;;;16.40;3.65;;;33.30;15.70;;;;;;5046537;28;20083;-67
2022/04/11 01:22:36;;;;;;;15.40;3.63;;;32.90;16.10;;;;;;5028449;28;20142;-66
2022/04/11 01:25:03;;;;;;;17.67;3.67;;;32.80;16.30;;;;;;5029961;28;20067;-67
2022/04/11 01:27:31;;;;;;;23.58;4.78;;;32.60;17.00;;;;;;5030329;28;20055;-68
2022/04/11 01:29:58;;;;;;;26.92;4.93;;;32.40;18.40;;;;;;5046065;28;20055;-68
2022/04/11 01:32:25;;;;;;;20.65;4.90;;;32.20;19.70;;;;;;5030369;28;20427;-68
2022/04/11 01:34:51;;;;;;;24.45;4.80;;;32.00;20.20;;;;;;5029989;28;20434;-67
2022/04/11 01:37:17;;;;;;;48.67;5.60;;;31.90;19.80;;;;;;5030732;28;20141;-70
2022/04/11 01:39:44;;;;;;;23.63;4.63;;;31.70;20.10;;;;;;5047642;28;20117;-67
2022/04/11 01:42:10;;;;;;;22.25;5.60;;;31.60;20.50;;;;;;5048096;28;20067;-68
2022/04/11 01:44:37;;;;;;;20.73;4.82;;;31.50;21.00;;;;;;5030088;28;20709;-67
2022/04/11 01:47:03;;;;;;;28.75;5.22;;;31.30;21.40;;;;;;5046220;28;20077;-67
2022/04/11 01:49:30;;;;;;;25.83;4.60;;;31.10;22.20;;;;;;5047020;28;20063;-67
2022/04/11 01:51:56;;;;;;;19.35;4.78;;;30.80;22.80;;;;;;5029378;28;20154;-68
2022/04/11 01:54:23;;;;;;;19.05;4.93;;;30.70;23.30;;;;;;5029498;28;20558;-69
2022/04/11 01:56:49;;;;;;;33.20;7.13;;;30.50;23.50;;;;;;5046191;28;20454;-66
2022/04/11 01:59:25;;;;;;;28.38;5.25;;;30.50;23.20;;;;;;5032640;28;20071;-66
2022/04/11 02:01:51;;;;;;;24.88;5.78;;;30.40;23.40;;;;;;5034472;28;20090;-68
2022/04/11 02:04:17;;;;;;;28.05;4.95;;;30.30;23.30;;;;;;5051994;28;20122;-69
2022/04/11 02:06:44;;;;;;;32.20;5.05;;;30.20;23.20;;;;;;5052068;28;20088;-68
2022/04/11 02:09:10;;;;;;;22.25;5.03;;;30.10;22.90;;;;;;5033527;28;20074;-66
2022/04/11 02:11:36;;;;;;;32.28;4.55;;;30.00;22.40;;;;;;5032810;28;20085;-66
2022/04/11 02:14:03;;;;;;;21.58;4.95;;;29.90;22.00;;;;;;5051678;28;20456;-69
2022/04/11 02:16:31;;;;;;;30.85;4.78;;;29.90;22.20;;;;;;5033992;28;20064;-69
2022/04/11 02:18:57;;;;;;;16.88;4.22;;;29.80;22.00;;;;;;5049545;28;20066;-63
2022/04/11 02:21:23;;;;;;;21.70;5.10;;;29.70;22.20;;;;;;5033595;28;20152;-61
2022/04/11 02:23:50;;;;;;;27.48;6.97;;;29.60;22.50;;;;;;5052604;28;20169;-69
2022/04/11 02:26:17;;;;;;;36.33;7.00;;;29.50;24.10;;;;;;5018001;28;20128;-67
2022/04/11 02:28:43;;;;;;;17.55;4.72;;;29.30;24.00;;;;;;5034564;28;20128;-70
2022/04/11 02:31:09;;;;;;;27.15;5.10;;;29.20;23.00;;;;;;5051586;28;20073;-68
2022/04/11 02:33:36;;;;;;;25.27;4.97;;;29.10;22.50;;;;;;5034250;28;20086;-67
2022/04/11 02:36:02;;;;;;;19.08;4.80;;;29.00;22.30;;;;;;5034333;28;20960;-67
2022/04/11 02:38:29;;;;;;;25.48;4.22;;;28.90;22.40;;;;;;5033672;28;20071;-70
2022/04/11 02:40:55;;;;;;;25.45;5.80;;;28.90;21.70;;;;;;5032848;28;20464;-65
2022/04/11 02:43:22;;;;;;;27.65;4.63;;;28.90;22.50;;;;;;5014278;28;20109;-66
2022/04/11 02:45:48;;;;;;;25.38;5.47;;;28.70;22.00;;;;;;5030480;28;20465;-69
2022/04/11 02:48:15;;;;;;;25.13;5.18;;;28.70;23.00;;;;;;5030785;28;20074;-66
2022/04/11 02:50:41;;;;;;;23.67;4.70;;;28.50;22.70;;;;;;5030761;28;20099;-66
2022/04/11 02:53:07;;;;;;;22.13;4.63;;;28.50;22.80;;;;;;5028933;28;20092;-68
2022/04/11 02:55:34;;;;;;;27.23;5.13;;;28.40;23.30;;;;;;5030977;28;20093;-69
2022/04/11 02:58:00;;;;;;;34.67;5.45;;;28.30;23.40;;;;;;5029818;28;20156;-69
2022/04/11 03:00:27;;;;;;;19.25;4.55;;;28.20;23.60;;;;;;5031355;28;20143;-65
2022/04/11 03:02:53;;;;;;;23.23;4.63;;;28.00;24.20;;;;;;5029926;28;20076;-67
2022/04/11 03:05:19;;;;;;;20.60;4.93;;;28.00;24.70;;;;;;5030686;28;20069;-67
2022/04/11 03:07:46;;;;;;;29.08;5.55;;;27.90;24.70;;;;;;5030539;28;20090;-72
2022/04/11 03:10:12;;;;;;;30.40;5.28;;;27.80;25.00;;;;;;5029317;28;20499;-67
2022/04/11 03:12:38;;;;;;;22.85;7.13;;;27.70;25.20;;;;;;5030003;28;20058;-69
2022/04/11 03:15:06;;;;;;;30.27;6.28;;;27.60;25.40;;;;;;5029437;28;20095;-67
2022/04/11 03:17:32;;;;;;;27.60;5.80;;;27.60;25.50;;;;;;5029041;28;20443;-68
2022/04/11 03:19:58;;;;;;;22.58;4.95;;;27.50;25.70;;;;;;5028772;28;20105;-69
2022/04/11 03:22:25;;;;;;;20.67;4.22;;;27.50;25.80;;;;;;5031057;28;20552;-69
2022/04/11 03:24:51;;;;;;;23.60;5.10;;;27.30;26.20;;;;;;5029497;28;20126;-71
2022/04/11 03:27:18;;;;;;;26.67;5.63;;;27.30;25.90;;;;;;5029831;28;20421;-69
2022/04/11 03:29:44;;;;;;;28.08;5.40;;;27.20;25.70;;;;;;5029987;28;20435;-69
2022/04/11 03:32:10;;;;;;;37.30;5.60;;;27.10;26.10;;;;;;5029108;28;20468;-69
2022/04/11 03:34:37;;;;;;;28.80;5.15;;;27.00;25.70;;;;;;5030015;28;20219;-70
2022/04/11 03:37:03;;;;;;;28.25;5.93;;;26.90;25.90;;;;;;5029204;28;20080;-68
2022/04/11 03:39:30;;;;;;;22.92;4.78;;;26.80;26.10;;;;;;5028563;28;20080;-69
2022/04/11 03:41:56;;;;;;;31.63;5.70;;;26.80;26.30;;;;;;5029862;28;20436;-68
2022/04/11 03:44:23;;;;;;;26.15;5.25;;;26.70;26.30;;;;;;5011668;28;20109;-72
2022/04/11 03:46:49;;;;;;;25.42;4.93;;;26.60;26.00;;;;;;5029258;28;20079;-69
2022/04/11 03:49:16;;;;;;;24.88;5.75;;;26.60;25.60;;;;;;5028991;28;20112;-72
2022/04/11 03:51:42;;;;;;;30.35;4.72;;;26.60;25.60;;;;;;5028854;28;20081;-67
2022/04/11 03:54:08;;;;;;;28.48;5.32;;;26.60;25.70;;;;;;5029232;28;20548;-68
2022/04/11 03:56:35;;;;;;;25.63;5.15;;;26.60;26.90;;;;;;5029172;28;20081;-68
2022/04/11 03:59:02;;;;;;;24.98;5.07;;;26.40;27.40;;;;;;5029933;28;20080;-71
2022/04/11 04:01:28;;;;;;;22.13;4.57;;;26.40;28.00;;;;;;5028533;28;20090;-69
2022/04/11 04:03:55;;;;;;;29.58;4.97;;;26.30;28.20;;;;;;5029215;28;20081;-67
2022/04/11 04:06:21;;;;;;;26.63;5.53;;;26.20;28.40;;;;;;5012115;28;20568;-69
2022/04/11 04:08:47;;;;;;;24.20;5.40;;;26.10;28.60;;;;;;5028855;28;20506;-69
2022/04/11 04:11:14;;;;;;;26.30;4.95;;;26.10;29.00;;;;;;5027872;28;20068;-69
2022/04/11 04:13:41;;;;;;;24.58;5.90;;;26.00;29.70;;;;;;5027417;28;20170;-71
2022/04/11 04:16:07;;;;;;;34.83;4.88;;;25.80;30.80;;;;;;5028054;28;20440;-71
2022/04/11 04:18:33;;;;;;;21.63;5.68;;;25.50;31.40;;;;;;5029324;28;20077;-71
2022/04/11 04:21:00;;;;;;;26.63;5.90;;;25.50;31.90;;;;;;5028329;28;20097;-69
2022/04/11 04:23:26;;;;;;;31.15;6.38;;;25.50;32.60;;;;;;5030076;28;20156;-68
2022/04/11 04:25:53;;;;;;;30.13;6.25;;;25.30;33.10;;;;;;5028066;28;20088;-71
2022/04/11 04:28:19;;;;;;;27.45;6.43;;;25.30;33.30;;;;;;5028532;28;20080;-70
2022/04/11 04:30:46;;;;;;;36.85;6.63;;;25.10;33.00;;;;;;5030967;28;20470;-70
2022/04/11 04:33:12;;;;;;;30.10;6.45;;;25.00;32.50;;;;;;5028261;28;20119;-69
2022/04/11 04:35:40;;;;;;;27.05;7.07;;;24.90;32.80;;;;;;5029821;28;20091;-68
2022/04/11 04:38:06;;;;;;;29.10;5.18;;;24.80;29.60;;;;;;5027874;28;20539;-72
2022/04/11 04:40:33;;;;;;;30.15;5.88;;;24.60;28.80;;;;;;5028159;28;20164;-70
2022/04/11 04:42:59;;;;;;;28.23;5.63;;;24.50;28.20;;;;;;5028747;28;20097;-68
2022/04/11 04:45:26;;;;;;;28.25;5.38;;;24.50;28.00;;;;;;5014901;28;20069;-68
2022/04/11 04:47:52;;;;;;;30.13;5.90;;;24.40;27.60;;;;;;5031462;28;20440;-68
2022/04/11 04:50:19;;;;;;;24.33;5.97;;;24.50;27.60;;;;;;5030549;28;20147;-67
2022/04/11 04:52:45;;;;;;;27.88;5.30;;;24.40;27.60;;;;;;5031224;28;20076;-68
2022/04/11 04:55:12;;;;;;;24.42;5.28;;;24.50;27.30;;;;;;5015414;28;20108;-70
2022/04/11 04:57:40;;;;;;;24.80;5.15;;;24.50;26.70;;;;;;5030240;28;20525;-69
2022/04/11 05:00:07;;;;;;;16.67;4.20;;;24.50;26.30;;;;;;5032555;28;20137;-69
2022/04/11 05:02:37;;;;;;;19.17;4.85;;;24.60;26.00;;;;;;5032744;28;20592;-68
2022/04/11 05:05:08;;;;;;;30.45;5.78;;;24.70;25.90;;;;;;5049372;28;20536;-69
2022/04/11 05:07:35;;;;;;;56.35;8.70;;;24.70;25.80;;;;;;5030598;28;20072;-69
2022/04/11 05:10:04;;;;;;;38.35;5.78;;;24.60;26.20;;;;;;5031836;28;20076;-68
2022/04/11 05:12:39;;;;;;;29.08;5.70;;;24.60;26.20;;;;;;5030846;28;20083;-65
2022/04/11 05:15:06;;;;;;;27.08;5.40;;;24.60;26.10;;;;;;5029931;28;20087;-66
2022/04/11 05:17:33;;;;;;;28.48;5.30;;;24.60;25.80;;;;;;5029193;28;20083;-69
2022/04/11 05:19:59;;;;;;;18.92;5.15;;;24.60;25.30;;;;;;5013965;28;20583;-68
2022/04/11 05:22:25;;;;;;;35.85;5.63;;;24.60;25.10;;;;;;5031197;28;20520;-67
2022/04/11 05:24:52;;;;;;;23.23;4.50;;;24.50;25.10;;;;;;5031421;28;20076;-64
2022/04/11 05:27:18;;;;;;;20.00;5.05;;;24.50;24.90;;;;;;5032320;28;20076;-66
2022/04/11 05:29:44;;;;;;;28.50;4.93;;;24.50;25.00;;;;;;5030710;28;20080;-69
2022/04/11 05:32:11;;;;;;;28.17;5.13;;;24.50;25.20;;;;;;5030373;28;20163;-67
2022/04/11 05:34:37;;;;;;;26.50;5.57;;;24.40;25.60;;;;;;5030513;28;20093;-70
2022/04/11 05:37:04;;;;;;;28.75;5.55;;;24.30;26.40;;;;;;5015269;28;20076;-65
2022/04/11 05:39:31;;;;;;;30.40;6.00;;;24.30;26.80;;;;;;5029533;28;20080;-66
2022/04/11 05:41:57;;;;;;;38.22;5.95;;;24.20;27.30;;;;;;5030292;28;20091;-64
2022/04/11 05:44:24;;;;;;;24.02;5.68;;;24.10;27.20;;;;;;5031154;28;20108;-68
2022/04/11 05:46:52;;;;;;;34.28;6.50;;;24.00;27.30;;;;;;5048095;28;20076;-66
2022/04/11 05:49:20;;;;;;;21.67;5.57;;;24.00;27.50;;;;;;5047913;28;20163;-67
2022/04/11 05:51:47;;;;;;;28.90;5.85;;;24.00;28.20;;;;;;5029004;28;20103;-70
2022/04/11 05:54:14;;;;;;;27.25;5.72;;;23.90;28.90;;;;;;5029927;28;20138;-66
2022/04/11 05:56:41;;;;;;;29.00;9.38;;;23.80;30.00;;;;;;5029384;28;20089;-72
2022/04/11 05:59:08;;;;;;;27.15;8.00;;;23.70;30.50;;;;;;5030232;28;20099;-72
2022/04/11 06:01:40;;;;;;;35.47;6.32;;;23.60;31.60;;;;;;5030093;28;20179;-70
2022/04/11 06:04:06;;;;;;;24.92;5.90;;;23.40;32.60;;;;;;5029643;28;20126;-70
2022/04/11 06:06:33;;;;;;;33.58;6.25;;;23.30;33.20;;;;;;5030592;28;20083;-62
2022/04/11 06:08:59;;;;;;;35.05;6.72;;;23.20;33.70;;;;;;5046919;28;20154;-67
2022/04/11 06:11:26;;;;;;;33.92;6.30;;;23.10;34.10;;;;;;5028633;28;20126;-65
2022/04/11 06:13:52;;;;;;;34.50;6.60;;;23.00;34.60;;;;;;5029019;28;20363;-65
2022/04/11 06:16:18;;;;;;;41.55;6.63;;;22.90;34.80;;;;;;5029292;28;20064;-65
2022/04/11 06:18:45;;;;;;;22.95;5.63;;;22.80;34.90;;;;;;5031200;28;20100;-65
2022/04/11 06:21:11;;;;;;;30.92;7.70;;;22.70;35.00;;;;;;5048833;28;20088;-67
2022/04/11 06:23:38;;;;;;;31.52;7.72;;;22.60;35.00;;;;;;5030913;28;20150;-66
2022/04/11 06:26:04;;;;;;;30.15;6.47;;;22.60;34.50;;;;;;5048029;28;20191;-66
2022/04/11 06:28:30;;;;;;;30.08;6.80;;;22.60;34.20;;;;;;5029823;28;20084;-68
2022/04/11 06:30:57;;;;;;;26.35;5.60;;;22.60;33.80;;;;;;5030938;28;20437;-68
2022/04/11 06:33:23;;;;;;;26.23;6.55;;;22.70;33.70;;;;;;5047379;28;20692;-68
2022/04/11 06:35:50;;;;;;;44.55;8.18;;;22.70;33.00;;;;;;5026967;28;20072;-66
2022/04/11 06:38:16;;;;;;;38.63;6.78;;;22.60;32.80;;;;;;5028259;28;20117;-70
2022/04/11 06:40:45;;;;;;;40.22;7.53;;;22.60;32.60;;;;;;5029064;28;20076;-67
2022/04/11 06:43:12;;;;;;;38.60;6.90;;;22.70;32.50;;;;;;5028946;28;20642;-68
2022/04/11 06:45:38;;;;;;;30.73;7.38;;;22.60;32.20;;;;;;5048692;28;20083;-69
2022/04/11 06:48:05;;;;;;;44.90;6.30;;;22.60;32.20;;;;;;5032543;28;20167;-70
2022/04/11 06:50:31;;;;;;;33.80;6.85;;;22.60;31.90;;;;;;5033262;28;20080;-69
2022/04/11 06:52:58;;;;;;;35.00;6.30;;;22.60;31.50;;;;;;5034033;28;20130;-69
2022/04/11 06:55:24;;;;;;;42.97;6.65;;;22.70;31.10;;;;;;5033433;28;20554;-66
2022/04/11 06:57:51;;;;;;;40.70;6.05;;;22.70;30.60;;;;;;5032170;28;20080;-65
2022/04/11 07:00:17;;;;;;;38.25;5.43;;;22.70;30.00;;;;;;5052284;28;20069;-68
2022/04/11 07:02:44;;;;;;;34.70;5.60;;;22.70;30.00;;;;;;5031713;28;20096;-70
2022/04/11 07:05:10;;;;;;;44.13;6.90;;;22.70;30.00;;;;;;5032829;28;20076;-69
2022/04/11 07:07:39;;;;;;;27.45;5.90;;;22.70;30.00;;;;;;5031687;28;20563;-68
2022/04/11 07:10:06;;;;;;;32.03;5.32;;;22.70;30.00;;;;;;5032548;28;20076;-68
2022/04/11 07:12:40;;;;;;;23.42;5.65;;;22.70;29.60;;;;;;5032301;28;20076;-69
2022/04/11 07:15:07;;;;;;;20.80;5.20;;;22.60;29.00;;;;;;5031483;28;20092;-68
2022/04/11 07:17:34;;;;;;;25.60;4.72;;;22.60;28.70;;;;;;5031278;28;20080;-68
2022/04/11 07:20:02;;;;;;;29.70;5.65;;;22.60;28.50;;;;;;5032309;28;20540;-70
2022/04/11 07:22:28;;;;;;;39.63;6.43;;;22.70;29.10;;;;;;5051019;28;20068;-69
2022/04/11 07:24:54;;;;;;;35.05;6.25;;;22.70;29.60;;;;;;5032298;28;20076;-66
2022/04/11 07:27:21;;;;;;;46.10;6.22;;;22.70;29.40;;;;;;5030061;28;20076;-70
2022/04/11 07:29:47;;;;;;;37.65;6.50;;;22.60;29.50;;;;;;5031134;28;20076;-67
2022/04/11 07:32:13;;;;;;;42.22;6.97;;;22.60;29.70;;;;;;5032987;28;20076;-68
2022/04/11 07:34:40;;;;;;;41.60;7.47;;;22.50;29.50;;;;;;5030453;28;20084;-67
2022/04/11 07:37:07;;;;;;;46.65;7.20;;;22.40;29.50;;;;;;5049132;28;20069;-66
2022/04/11 07:39:34;;;;;;;37.05;5.78;;;22.40;29.50;;;;;;5032810;28;20079;-68
2022/04/11 07:42:01;;;;;;;31.25;5.63;;;22.40;29.30;;;;;;5032020;28;20071;-67
2022/04/11 07:44:27;;;;;;;29.83;6.18;;;22.40;28.70;;;;;;5031175;28;20574;-72
2022/04/11 07:46:53;;;;;;;30.30;5.18;;;22.40;28.20;;;;;;5031520;28;20087;-69
2022/04/11 07:49:20;;;;;;;29.05;5.43;;;22.40;27.60;;;;;;5030967;28;20160;-71
2022/04/11 07:51:46;;;;;;;31.30;5.45;;;22.40;26.80;;;;;;5031629;28;20205;-70
2022/04/11 07:54:13;;;;;;;28.92;5.32;;;22.40;26.60;;;;;;5032228;28;20096;-68
2022/04/11 07:56:39;;;;;;;33.20;5.40;;;22.50;26.50;;;;;;5030396;28;20543;-67
2022/04/11 07:59:05;;;;;;;30.70;5.43;;;22.50;26.40;;;;;;5032164;28;20555;-68
2022/04/11 08:01:32;;;;;;;34.88;6.03;;;22.50;26.40;;;;;;5049638;28;20082;-68
2022/04/11 08:03:58;;;;;;;38.85;6.97;;;22.50;26.60;;;;;;5032042;28;20100;-67
2022/04/11 08:06:25;;;;;;;35.47;5.80;;;22.50;26.70;;;;;;5030528;28;20167;-68
2022/04/11 08:08:51;;;;;;;33.70;6.13;;;22.40;26.80;;;;;;5049828;28;20064;-68
2022/04/11 08:11:18;;;;;;;35.63;6.38;;;22.40;26.60;;;;;;5031652;28;20161;-67
2022/04/11 08:13:45;;;;;;;29.95;5.78;;;22.40;26.50;;;;;;5047996;28;20120;-68
2022/04/11 08:16:12;;;;;;;32.30;5.43;;;22.40;26.60;;;;;;5029306;28;20083;-68
2022/04/11 08:18:39;;;;;;;31.75;5.68;;;22.40;26.40;;;;;;5014859;28;20412;-67
2022/04/11 08:21:06;;;;;;;31.88;5.78;;;22.40;26.80;;;;;;5030593;28;20076;-69
2022/04/11 08:23:32;;;;;;;27.65;5.75;;;22.40;27.60;;;;;;5014651;28;20089;-67
2022/04/11 08:25:58;;;;;;;30.63;5.88;;;22.40;29.50;;;;;;5031714;28;20107;-67
2022/04/11 08:28:25;;;;;;;31.27;5.82;;;22.40;29.70;;;;;;5030734;28;20083;-68
2022/04/11 08:30:51;;;;;;;32.70;5.53;;;22.40;29.20;;;;;;5030932;28;20437;-70
2022/04/11 08:33:18;;;;;;;40.50;6.63;;;22.30;28.30;;;;;;5031740;28;20141;-68
2022/04/11 08:35:44;;;;;;;33.40;6.03;;;22.30;28.40;;;;;;5048342;28;20068;-67
2022/04/11 08:38:10;;;;;;;35.60;6.93;;;22.30;29.40;;;;;;5031299;28;20092;-70
2022/04/11 08:40:37;;;;;;;46.80;7.45;;;22.30;30.00;;;;;;5049194;28;20118;-68
2022/04/11 08:43:05;;;;;;;35.67;8.13;;;22.30;30.10;;;;;;5047662;28;20448;-67
2022/04/11 08:45:31;;;;;;;47.15;6.72;;;22.20;30.00;;;;;;5029190;28;20132;-68
2022/04/11 08:47:58;;;;;;;37.00;6.28;;;22.20;29.80;;;;;;5031105;28;20070;-67
2022/04/11 08:50:25;;;;;;;29.23;5.72;;;22.10;29.20;;;;;;5047971;28;20183;-63
2022/04/11 08:52:53;;;;;;;40.65;7.40;;;22.10;28.80;;;;;;5030208;28;20064;-67
2022/04/11 08:55:21;;;;;;;28.65;6.03;;;22.00;28.90;;;;;;5029937;28;20583;-66
2022/04/11 08:57:48;;;;;;;26.45;5.57;;;22.10;29.00;;;;;;5030231;28;20155;-68
2022/04/11 09:00:16;;;;;;;34.63;5.72;;;22.10;29.00;;;;;;5031117;28;20524;-67
2022/04/11 09:02:45;;;;;;;32.25;6.05;;;22.10;29.10;;;;;;5050349;28;20141;-66
2022/04/11 09:05:12;;;;;;;38.63;6.88;;;22.00;29.10;;;;;;5050730;28;20073;-66
2022/04/11 09:07:53;;;;;;;40.60;8.40;;;21.90;29.90;;;;;;4999126;28;20072;-67
2022/04/11 09:10:21;;;;;;;47.03;9.85;;;21.90;33.10;;;;;;5030284;28;20072;-68
2022/04/11 09:12:53;;;;;;;37.92;8.10;;;21.80;35.10;;;;;;5029693;28;20076;-68
2022/04/11 09:15:20;;;;;;;44.95;8.80;;;21.80;34.50;;;;;;5029102;28;20146;-70
2022/04/11 09:17:48;;;;;;;32.95;7.53;;;21.70;33.60;;;;;;5026875;28;20065;-67
2022/04/11 09:20:21;;;;;;;42.13;8.02;;;21.70;33.80;;;;;;5048141;28;20073;-68
2022/04/11 09:22:48;;;;;;;33.38;8.23;;;21.60;33.80;;;;;;5048616;28;20092;-64
2022/04/11 09:25:18;;;;;;;39.85;7.90;;;21.60;34.10;;;;;;5033036;28;20076;-67
2022/04/11 09:27:46;;;;;;;36.72;7.38;;;21.50;34.20;;;;;;5028942;28;20068;-68
2022/04/11 09:30:21;;;;;;;38.72;8.02;;;21.50;34.40;;;;;;5030069;28;20072;-67
2022/04/11 09:32:52;;;;;;;39.45;7.43;;;21.40;34.60;;;;;;5030203;28;20080;-64
2022/04/11 09:35:23;;;;;;;27.30;6.78;;;21.40;34.50;;;;;;5029605;28;20084;-66
2022/04/11 09:38:13;;;;;;;27.50;6.80;;;21.30;34.40;;;;;;5029534;28;20524;-68
2022/04/11 09:40:39;;;;;;;37.47;7.15;;;21.30;34.10;;;;;;5021751;28;20077;-66
2022/04/11 09:43:06;;;;;;;42.55;7.28;;;21.30;33.90;;;;;;5029378;28;20506;-68
2022/04/11 09:45:33;;;;;;;30.20;6.60;;;21.30;34.10;;;;;;5030267;28;20119;-68
2022/04/11 09:48:04;;;;;;;36.00;7.57;;;21.20;34.70;;;;;;5048185;28;20076;-65
2022/04/11 09:50:32;;;;;;;44.78;8.57;;;21.20;35.70;;;;;;5047191;28;20080;-65
2022/04/11 09:53:12;;;;;;;32.95;7.45;;;21.10;37.70;;;;;;5030462;28;20528;-62
2022/04/11 09:55:40;;;;;;;37.65;9.27;;;21.30;38.20;;;;;;5030515;28;20521;-66
2022/04/11 09:58:07;;;;;;;41.25;8.80;;;21.30;39.30;;;;;;5013513;28;20100;-68
2022/04/11 10:00:36;;;;;;;62.95;9.13;;;21.20;41.00;;;;;;5030205;28;20092;-68
2022/04/11 10:03:05;;;;;;;38.83;7.78;;;21.10;42.80;;;;;;5027357;28;20559;-69
2022/04/11 10:05:36;;;;;;;35.50;9.13;;;21.00;43.30;;;;;;5029498;28;20116;-68
2022/04/11 10:08:04;;;;;;;39.78;9.38;;;20.90;43.60;;;;;;5030029;28;20111;-68
2022/04/11 10:10:34;;;;;;;44.53;9.85;;;20.80;44.10;;;;;;5029178;28;20146;-69
2022/04/11 10:13:02;;;;;;;39.95;10.52;;;20.80;46.10;;;;;;5029642;28;20083;-66
2022/04/11 10:15:29;;;;;;;47.05;10.13;;;20.70;47.60;;;;;;5029971;28;20073;-68
2022/04/11 10:17:56;;;;;;;45.78;12.05;;;20.80;48.60;;;;;;5027080;28;20495;-69
2022/04/11 10:20:35;;;;;;;60.80;15.00;;;20.80;49.10;;;;;;5030877;28;20155;-68
2022/04/11 10:23:37;;;;;;;62.58;15.45;;;20.80;50.30;;;;;;5032245;28;20076;-68
2022/04/11 10:26:17;;;;;;;60.85;14.45;;;20.80;51.20;;;;;;5050818;28;20075;-66
2022/04/11 10:28:51;;;;;;;60.13;15.50;;;20.80;51.60;;;;;;5033352;28;20072;-66
2022/04/11 10:31:18;;;;;;;66.97;16.30;;;20.70;52.30;;;;;;5034450;28;20072;-68
2022/04/11 10:33:57;;;;;;;88.53;21.65;;;20.50;53.10;;;;;;5033074;28;20210;-69
2022/04/11 10:36:28;;;;;;;77.05;19.90;;;20.40;53.50;;;;;;5016702;28;20077;-68
2022/04/11 10:39:13;;;;;;;66.53;20.05;;;20.40;53.80;;;;;;5033052;28;20068;-67
2022/04/11 10:41:57;;;;;;;75.95;20.77;;;20.30;54.00;;;;;;5033018;28;20175;-67
2022/04/11 10:44:33;;;;;;;81.60;20.55;;;20.30;54.30;;;;;;5028256;28;20152;-68
2022/04/11 10:47:11;;;;;;;73.00;18.40;;;20.30;54.60;;;;;;5031835;28;20078;-68
2022/04/11 10:49:50;;;;;;;48.20;11.13;;;20.20;54.50;;;;;;5032991;28;20168;-67
2022/04/11 10:52:38;;;;;;;44.65;9.90;;;20.00;50.00;;;;;;5033467;28;20080;-69
2022/04/11 10:55:11;;;;;;;35.05;7.97;;;19.90;49.00;;;;;;5033554;28;20097;-67
2022/04/11 10:57:51;;;;;;;34.92;7.70;;;19.80;48.10;;;;;;5052581;28;20088;-70
2022/04/11 11:00:19;;;;;;;44.08;8.40;;;19.70;48.10;;;;;;5034544;28;20174;-70
2022/04/11 11:05:27;;;;;;;35.17;8.10;;;19.80;47.80;;;;;;5054367;28;20074;-68
2022/04/11 11:08:13;;;;;;;44.70;8.05;;;19.80;47.80;;;;;;5038585;28;20133;-68
2022/04/11 11:10:42;;;;;;;37.83;8.32;;;19.70;47.80;;;;;;5035968;28;20435;-69
2022/04/11 11:13:30;;;;;;;28.77;7.57;;;19.60;48.30;;;;;;5033015;28;20087;-68
2022/04/11 11:16:11;;;;;;;;;;;19.60;48.60;;;;;;5033178;28;20088;-67
2022/04/11 11:18:47;;;;;;;32.95;8.23;;;19.40;51.80;;;;;;5050898;28;19956;-69
2022/04/11 11:21:23;;;;;;;43.33;8.05;;;19.50;52.90;;;;;;5031420;28;20138;-66
2022/04/11 11:24:06;;;;;;;34.35;8.45;;;19.50;55.30;;;;;;5050389;28;20072;-69
2022/04/11 11:26:45;;;;;;;35.75;7.97;;;19.50;55.50;;;;;;5049122;28;20186;-67
2022/04/11 11:29:39;;;;;;;32.00;7.75;;;19.60;55.70;;;;;;5031795;28;20420;-67
2022/04/11 11:32:08;;;;;;;43.58;8.23;;;19.50;55.00;;;;;;5049110;28;20576;-69
2022/04/11 11:34:36;;;;;;;39.83;8.50;;;19.40;54.60;;;;;;5032334;28;20447;-69
2022/04/11 11:37:06;;;;;;;44.90;8.27;;;19.40;54.40;;;;;;5049792;28;20116;-66
2022/04/11 11:39:38;;;;;;;42.95;9.43;;;19.40;54.50;;;;;;5031935;28;20077;-70
2022/04/11 11:42:07;;;;;;;45.08;9.15;;;19.40;54.60;;;;;;5031528;28;20072;-66
2022/04/11 11:44:46;;;;;;;54.38;9.43;;;19.40;54.90;;;;;;5031239;28;20123;-66
2022/04/11 11:47:12;;;;;;;38.00;8.25;;;19.30;55.20;;;;;;5016210;28;20412;-66
2022/04/11 11:49:47;;;;;;;31.75;8.00;;;19.10;55.30;;;;;;5032053;28;20087;-66
2022/04/11 11:52:17;;;;;;;41.78;9.35;;;19.20;55.80;;;;;;5049638;28;20551;-68
2022/04/11 11:54:46;;;;;;;39.30;8.15;;;19.20;55.90;;;;;;5049594;28;20096;-67
2022/04/11 11:57:19;;;;;;;42.55;8.20;;;19.10;57.10;;;;;;5032388;28;20528;-67
2022/04/11 11:59:50;;;;;;;31.75;7.85;;;19.10;57.60;;;;;;5049665;28;20524;-67
2022/04/11 12:05:02;;;;;;;45.35;9.02;;;19.00;57.90;;;;;;5049740;28;20486;-68
2022/04/11 12:07:29;;;;;;;42.85;8.77;;;19.00;57.00;;;;;;5048714;28;20083;-68
2022/04/11 12:09:56;;;;;;;38.67;8.43;;;18.90;56.80;;;;;;5049632;28;20087;-67
2022/04/11 12:12:22;;;;;;;34.92;7.90;;;18.90;55.90;;;;;;4998334;28;20080;-67
2022/04/11 12:15:05;;;;;;;34.30;8.43;;;18.90;55.40;;;;;;5015079;28;20107;-65
2022/04/11 12:17:37;;;;;;;35.70;8.48;;;19.00;55.20;;;;;;5048468;28;20071;-69
2022/04/11 12:20:20;;;;;;;41.58;8.48;;;18.90;54.80;;;;;;5030047;28;20077;-69
2022/04/11 12:23:11;;;;;;;46.00;7.93;;;18.80;54.20;;;;;;5047652;28;20072;-66
2022/04/11 12:25:51;;;;;;;38.78;8.60;;;18.80;54.30;;;;;;5030090;28;20081;-70
2022/04/11 12:28:28;;;;;;;36.60;8.00;;;18.80;56.40;;;;;;5030880;28;20682;-68
2022/04/11 12:31:03;;;;;;;;;;;18.80;56.00;;;;;;5015900;28;20080;-68
2022/04/11 12:33:35;;;;;;;48.45;8.82;;;18.70;55.90;;;;;;5030908;28;20070;-68
2022/04/11 12:36:06;;;;;;;40.28;7.93;;;18.70;54.70;;;;;;5031032;28;20567;-67
2022/04/11 12:38:58;;;;;;;35.65;7.53;;;18.70;54.80;;;;;;5029907;28;20076;-67
2022/04/11 12:41:40;;;;;;;42.42;9.75;;;18.70;53.10;;;;;;5030127;28;20068;-67
2022/04/11 12:44:20;;;;;;;37.05;8.60;;;18.60;53.30;;;;;;5030818;28;20599;-67
2022/04/11 12:46:49;;;;;;;42.17;8.57;;;18.60;53.60;;;;;;5049006;28;20072;-69
2022/04/11 12:49:19;;;;;;;39.70;8.43;;;18.50;53.60;;;;;;5031349;28;20138;-68
2022/04/11 12:52:07;;;;;;;46.80;9.05;;;18.50;54.00;;;;;;5031332;28;20081;-69